sensor_id;sensor_type;location;lat;lon;timestamp;P1;durP1;ratioP1;P2;durP2;ratioP2
14599;SDS011;7386;45.586;12.854;2023-10-08T00:00:48;22.33;;;16.15;;
14599;SDS011;7386;45.586;12.854;2023-10-08T00:03:18;23.85;;;15.85;;
14599;SDS011;7386;45.586;12.854;2023-10-08T00:05:47;23.10;;;16.17;;
14599;SDS011;7386;45.586;12.854;2023-10-08T00:08:17;23.92;;;17.27;;
14599;SDS011;7386;45.586;12.854;2023-10-08T00:10:47;23.10;;;16.42;;
14599;SDS011;7386;45.586;12.854;2023-10-08T00:13:17;25.83;;;18.02;;
14599;SDS011;7386;45.586;12.854;2023-10-08T00:15:46;25.05;;;18.15;;
14599;SDS011;7386;45.586;12.854;2023-10-08T00:18:19;24.45;;;18.67;;
14599;SDS011;7386;45.586;12.854;2023-10-08T00:20:49;26.48;;;18.52;;
14599;SDS011;7386;45.586;12.854;2023-10-08T00:23:25;27.80;;;18.02;;
14599;SDS011;7386;45.586;12.854;2023-10-08T00:25:55;26.50;;;18.40;;
14599;SDS011;7386;45.586;12.854;2023-10-08T00:28:24;26.50;;;18.80;;
14599;SDS011;7386;45.586;12.854;2023-10-08T00:30:54;24.20;;;17.23;;
14599;SDS011;7386;45.586;12.854;2023-10-08T00:33:24;24.33;;;18.45;;
14599;SDS011;7386;45.586;12.854;2023-10-08T00:35:52;25.23;;;18.90;;
14599;SDS011;7386;45.586;12.854;2023-10-08T00:38:22;27.70;;;20.23;;
14599;SDS011;7386;45.586;12.854;2023-10-08T00:41:00;31.92;;;20.08;;
14599;SDS011;7386;45.586;12.854;2023-10-08T00:43:29;28.40;;;19.15;;
14599;SDS011;7386;45.586;12.854;2023-10-08T00:46:01;25.10;;;19.33;;
14599;SDS011;7386;45.586;12.854;2023-10-08T00:48:44;26.33;;;18.27;;
14599;SDS011;7386;45.586;12.854;2023-10-08T00:51:13;25.60;;;18.27;;
14599;SDS011;7386;45.586;12.854;2023-10-08T00:53:52;25.83;;;19.48;;
14599;SDS011;7386;45.586;12.854;2023-10-08T00:56:27;27.20;;;19.10;;
14599;SDS011;7386;45.586;12.854;2023-10-08T00:59:12;27.15;;;17.90;;
14599;SDS011;7386;45.586;12.854;2023-10-08T01:01:42;27.38;;;18.75;;
14599;SDS011;7386;45.586;12.854;2023-10-08T01:04:18;26.48;;;18.63;;
14599;SDS011;7386;45.586;12.854;2023-10-08T01:06:49;28.80;;;18.92;;
14599;SDS011;7386;45.586;12.854;2023-10-08T01:09:22;27.48;;;19.45;;
14599;SDS011;7386;45.586;12.854;2023-10-08T01:12:09;27.25;;;19.17;;
14599;SDS011;7386;45.586;12.854;2023-10-08T01:14:41;25.02;;;17.92;;
14599;SDS011;7386;45.586;12.854;2023-10-08T01:17:12;24.60;;;17.65;;
14599;SDS011;7386;45.586;12.854;2023-10-08T01:19:42;23.38;;;16.92;;
14599;SDS011;7386;45.586;12.854;2023-10-08T01:22:13;25.15;;;16.58;;
14599;SDS011;7386;45.586;12.854;2023-10-08T01:24:45;26.23;;;16.73;;
14599;SDS011;7386;45.586;12.854;2023-10-08T01:27:15;24.48;;;18.23;;
14599;SDS011;7386;45.586;12.854;2023-10-08T01:29:48;21.90;;;16.63;;
14599;SDS011;7386;45.586;12.854;2023-10-08T01:32:18;24.00;;;17.05;;
14599;SDS011;7386;45.586;12.854;2023-10-08T01:34:48;23.70;;;16.75;;
14599;SDS011;7386;45.586;12.854;2023-10-08T01:37:18;23.75;;;16.90;;
14599;SDS011;7386;45.586;12.854;2023-10-08T01:39:48;22.45;;;16.23;;
14599;SDS011;7386;45.586;12.854;2023-10-08T01:42:17;20.67;;;15.77;;
14599;SDS011;7386;45.586;12.854;2023-10-08T01:44:49;25.80;;;16.75;;
14599;SDS011;7386;45.586;12.854;2023-10-08T01:47:21;24.75;;;17.73;;
14599;SDS011;7386;45.586;12.854;2023-10-08T01:49:52;25.40;;;17.60;;
14599;SDS011;7386;45.586;12.854;2023-10-08T01:52:32;22.75;;;15.43;;
14599;SDS011;7386;45.586;12.854;2023-10-08T01:55:01;22.83;;;16.15;;
14599;SDS011;7386;45.586;12.854;2023-10-08T01:57:30;22.58;;;16.58;;
14599;SDS011;7386;45.586;12.854;2023-10-08T01:59:58;22.77;;;16.60;;
14599;SDS011;7386;45.586;12.854;2023-10-08T02:02:27;23.13;;;16.80;;
14599;SDS011;7386;45.586;12.854;2023-10-08T02:04:55;26.20;;;16.98;;
14599;SDS011;7386;45.586;12.854;2023-10-08T02:07:24;24.90;;;16.33;;
14599;SDS011;7386;45.586;12.854;2023-10-08T02:09:54;25.80;;;17.60;;
14599;SDS011;7386;45.586;12.854;2023-10-08T02:12:23;28.35;;;19.35;;
14599;SDS011;7386;45.586;12.854;2023-10-08T02:14:52;24.80;;;17.52;;
14599;SDS011;7386;45.586;12.854;2023-10-08T02:17:20;25.27;;;17.60;;
14599;SDS011;7386;45.586;12.854;2023-10-08T02:19:49;27.95;;;18.55;;
14599;SDS011;7386;45.586;12.854;2023-10-08T02:22:17;25.73;;;18.50;;
14599;SDS011;7386;45.586;12.854;2023-10-08T02:24:46;24.88;;;16.95;;
14599;SDS011;7386;45.586;12.854;2023-10-08T02:27:18;23.40;;;17.67;;
14599;SDS011;7386;45.586;12.854;2023-10-08T02:29:47;28.60;;;19.15;;
14599;SDS011;7386;45.586;12.854;2023-10-08T02:32:16;24.85;;;18.15;;
14599;SDS011;7386;45.586;12.854;2023-10-08T02:34:48;24.60;;;17.70;;
14599;SDS011;7386;45.586;12.854;2023-10-08T02:37:17;26.02;;;18.17;;
14599;SDS011;7386;45.586;12.854;2023-10-08T02:39:46;25.67;;;17.88;;
14599;SDS011;7386;45.586;12.854;2023-10-08T02:42:15;26.08;;;16.58;;
14599;SDS011;7386;45.586;12.854;2023-10-08T02:44:44;28.33;;;17.35;;
14599;SDS011;7386;45.586;12.854;2023-10-08T02:47:13;21.70;;;16.38;;
14599;SDS011;7386;45.586;12.854;2023-10-08T02:49:43;24.75;;;17.10;;
14599;SDS011;7386;45.586;12.854;2023-10-08T02:52:14;25.25;;;17.23;;
14599;SDS011;7386;45.586;12.854;2023-10-08T02:54:43;24.02;;;17.27;;
14599;SDS011;7386;45.586;12.854;2023-10-08T02:57:12;23.35;;;17.17;;
14599;SDS011;7386;45.586;12.854;2023-10-08T02:59:41;23.10;;;16.05;;
14599;SDS011;7386;45.586;12.854;2023-10-08T03:02:13;23.52;;;16.85;;
14599;SDS011;7386;45.586;12.854;2023-10-08T03:04:45;25.95;;;17.67;;
14599;SDS011;7386;45.586;12.854;2023-10-08T03:07:14;23.08;;;16.92;;
14599;SDS011;7386;45.586;12.854;2023-10-08T03:09:49;23.20;;;17.60;;
14599;SDS011;7386;45.586;12.854;2023-10-08T03:12:29;23.63;;;17.15;;
14599;SDS011;7386;45.586;12.854;2023-10-08T03:14:59;28.25;;;18.73;;
14599;SDS011;7386;45.586;12.854;2023-10-08T03:17:41;28.02;;;18.52;;
14599;SDS011;7386;45.586;12.854;2023-10-08T03:20:17;25.70;;;18.83;;
14599;SDS011;7386;45.586;12.854;2023-10-08T03:22:56;30.05;;;20.90;;
14599;SDS011;7386;45.586;12.854;2023-10-08T03:25:25;29.98;;;20.55;;
14599;SDS011;7386;45.586;12.854;2023-10-08T03:27:54;30.85;;;20.13;;
14599;SDS011;7386;45.586;12.854;2023-10-08T03:30:25;28.65;;;20.60;;
14599;SDS011;7386;45.586;12.854;2023-10-08T03:32:55;28.38;;;20.13;;
14599;SDS011;7386;45.586;12.854;2023-10-08T03:35:24;30.25;;;20.60;;
14599;SDS011;7386;45.586;12.854;2023-10-08T03:37:57;27.33;;;20.05;;
14599;SDS011;7386;45.586;12.854;2023-10-08T03:40:46;25.85;;;18.77;;
14599;SDS011;7386;45.586;12.854;2023-10-08T03:43:16;28.63;;;20.45;;
14599;SDS011;7386;45.586;12.854;2023-10-08T03:46:00;29.50;;;20.70;;
14599;SDS011;7386;45.586;12.854;2023-10-08T03:48:33;30.23;;;20.75;;
14599;SDS011;7386;45.586;12.854;2023-10-08T03:51:03;28.10;;;20.27;;
14599;SDS011;7386;45.586;12.854;2023-10-08T03:53:38;27.15;;;19.50;;
14599;SDS011;7386;45.586;12.854;2023-10-08T03:56:27;31.77;;;20.35;;
14599;SDS011;7386;45.586;12.854;2023-10-08T03:58:56;28.70;;;20.27;;
14599;SDS011;7386;45.586;12.854;2023-10-08T04:01:27;26.90;;;19.45;;
14599;SDS011;7386;45.586;12.854;2023-10-08T04:04:00;29.05;;;19.35;;
14599;SDS011;7386;45.586;12.854;2023-10-08T04:06:29;30.60;;;20.17;;
14599;SDS011;7386;45.586;12.854;2023-10-08T04:09:04;32.10;;;21.13;;
14599;SDS011;7386;45.586;12.854;2023-10-08T04:11:47;34.55;;;21.25;;
14599;SDS011;7386;45.586;12.854;2023-10-08T04:14:30;31.73;;;20.75;;
14599;SDS011;7386;45.586;12.854;2023-10-08T04:17:01;30.48;;;20.73;;
14599;SDS011;7386;45.586;12.854;2023-10-08T04:19:30;32.65;;;21.05;;
14599;SDS011;7386;45.586;12.854;2023-10-08T04:21:59;31.50;;;19.77;;
14599;SDS011;7386;45.586;12.854;2023-10-08T04:24:29;28.85;;;19.15;;
14599;SDS011;7386;45.586;12.854;2023-10-08T04:27:01;28.60;;;19.08;;
14599;SDS011;7386;45.586;12.854;2023-10-08T04:29:32;27.98;;;18.67;;
14599;SDS011;7386;45.586;12.854;2023-10-08T04:32:03;28.60;;;18.33;;
14599;SDS011;7386;45.586;12.854;2023-10-08T04:34:39;27.02;;;18.17;;
14599;SDS011;7386;45.586;12.854;2023-10-08T04:37:13;22.98;;;16.67;;
14599;SDS011;7386;45.586;12.854;2023-10-08T04:39:47;27.75;;;18.30;;
14599;SDS011;7386;45.586;12.854;2023-10-08T04:42:25;24.33;;;17.65;;
14599;SDS011;7386;45.586;12.854;2023-10-08T04:44:53;25.60;;;17.40;;
14599;SDS011;7386;45.586;12.854;2023-10-08T04:47:22;23.20;;;17.30;;
14599;SDS011;7386;45.586;12.854;2023-10-08T04:50:02;30.55;;;19.08;;
14599;SDS011;7386;45.586;12.854;2023-10-08T04:52:32;24.92;;;18.80;;
14599;SDS011;7386;45.586;12.854;2023-10-08T04:55:12;27.63;;;19.08;;
14599;SDS011;7386;45.586;12.854;2023-10-08T04:57:46;27.98;;;19.45;;
14599;SDS011;7386;45.586;12.854;2023-10-08T05:00:15;27.45;;;19.50;;
14599;SDS011;7386;45.586;12.854;2023-10-08T05:03:05;29.60;;;19.45;;
14599;SDS011;7386;45.586;12.854;2023-10-08T05:05:42;28.70;;;19.98;;
14599;SDS011;7386;45.586;12.854;2023-10-08T05:08:30;29.00;;;19.65;;
14599;SDS011;7386;45.586;12.854;2023-10-08T05:11:13;36.20;;;21.45;;
14599;SDS011;7386;45.586;12.854;2023-10-08T05:13:51;27.67;;;20.33;;
14599;SDS011;7386;45.586;12.854;2023-10-08T05:16:32;32.03;;;20.83;;
14599;SDS011;7386;45.586;12.854;2023-10-08T05:19:10;29.58;;;21.00;;
14599;SDS011;7386;45.586;12.854;2023-10-08T05:21:53;29.42;;;21.75;;
14599;SDS011;7386;45.586;12.854;2023-10-08T05:24:32;31.73;;;22.10;;
14599;SDS011;7386;45.586;12.854;2023-10-08T05:27:07;27.70;;;20.77;;
14599;SDS011;7386;45.586;12.854;2023-10-08T05:29:52;32.88;;;22.60;;
14599;SDS011;7386;45.586;12.854;2023-10-08T05:32:41;34.78;;;22.15;;
14599;SDS011;7386;45.586;12.854;2023-10-08T05:35:27;30.60;;;22.02;;
14599;SDS011;7386;45.586;12.854;2023-10-08T05:38:17;32.97;;;21.85;;
14599;SDS011;7386;45.586;12.854;2023-10-08T05:41:04;33.38;;;21.60;;
14599;SDS011;7386;45.586;12.854;2023-10-08T05:43:43;29.65;;;21.05;;
14599;SDS011;7386;45.586;12.854;2023-10-08T05:46:29;32.65;;;22.15;;
14599;SDS011;7386;45.586;12.854;2023-10-08T05:49:13;32.30;;;22.17;;
14599;SDS011;7386;45.586;12.854;2023-10-08T05:52:05;27.00;;;19.20;;
14599;SDS011;7386;45.586;12.854;2023-10-08T05:55:08;21.40;;;15.18;;
14599;SDS011;7386;45.586;12.854;2023-10-08T05:57:52;16.00;;;13.02;;
14599;SDS011;7386;45.586;12.854;2023-10-08T06:00:40;15.50;;;12.10;;
14599;SDS011;7386;45.586;12.854;2023-10-08T06:03:32;14.70;;;11.82;;
14599;SDS011;7386;45.586;12.854;2023-10-08T06:06:04;14.82;;;11.60;;
14599;SDS011;7386;45.586;12.854;2023-10-08T06:09:02;14.63;;;11.32;;
14599;SDS011;7386;45.586;12.854;2023-10-08T06:11:49;14.90;;;11.15;;
14599;SDS011;7386;45.586;12.854;2023-10-08T06:14:34;12.57;;;9.80;;
14599;SDS011;7386;45.586;12.854;2023-10-08T06:17:35;14.07;;;10.32;;
14599;SDS011;7386;45.586;12.854;2023-10-08T06:20:24;12.48;;;10.05;;
14599;SDS011;7386;45.586;12.854;2023-10-08T06:22:53;13.70;;;10.10;;
14599;SDS011;7386;45.586;12.854;2023-10-08T06:25:28;12.75;;;9.68;;
14599;SDS011;7386;45.586;12.854;2023-10-08T06:27:58;11.80;;;9.63;;
14599;SDS011;7386;45.586;12.854;2023-10-08T06:30:29;12.95;;;9.77;;
14599;SDS011;7386;45.586;12.854;2023-10-08T06:33:01;10.48;;;8.50;;
14599;SDS011;7386;45.586;12.854;2023-10-08T06:35:30;11.25;;;9.27;;
14599;SDS011;7386;45.586;12.854;2023-10-08T06:37:59;11.98;;;8.95;;
14599;SDS011;7386;45.586;12.854;2023-10-08T06:40:34;11.30;;;8.65;;
14599;SDS011;7386;45.586;12.854;2023-10-08T06:43:10;11.63;;;8.80;;
14599;SDS011;7386;45.586;12.854;2023-10-08T06:45:41;11.07;;;8.25;;
14599;SDS011;7386;45.586;12.854;2023-10-08T06:48:10;11.45;;;8.80;;
14599;SDS011;7386;45.586;12.854;2023-10-08T06:50:44;11.48;;;8.45;;
14599;SDS011;7386;45.586;12.854;2023-10-08T06:53:13;11.57;;;8.27;;
14599;SDS011;7386;45.586;12.854;2023-10-08T06:55:44;10.65;;;8.43;;
14599;SDS011;7386;45.586;12.854;2023-10-08T06:58:16;10.32;;;8.30;;
14599;SDS011;7386;45.586;12.854;2023-10-08T07:00:44;11.23;;;8.75;;
14599;SDS011;7386;45.586;12.854;2023-10-08T07:03:16;12.10;;;9.07;;
14599;SDS011;7386;45.586;12.854;2023-10-08T07:05:47;10.38;;;8.13;;
14599;SDS011;7386;45.586;12.854;2023-10-08T07:08:25;10.40;;;7.93;;
14599;SDS011;7386;45.586;12.854;2023-10-08T07:10:54;10.80;;;8.60;;
14599;SDS011;7386;45.586;12.854;2023-10-08T07:13:26;9.63;;;7.75;;
14599;SDS011;7386;45.586;12.854;2023-10-08T07:15:57;9.38;;;7.28;;
14599;SDS011;7386;45.586;12.854;2023-10-08T07:18:26;9.75;;;7.90;;
14599;SDS011;7386;45.586;12.854;2023-10-08T07:20:58;10.85;;;7.82;;
14599;SDS011;7386;45.586;12.854;2023-10-08T07:23:29;9.75;;;8.05;;
14599;SDS011;7386;45.586;12.854;2023-10-08T07:26:01;9.35;;;7.53;;
14599;SDS011;7386;45.586;12.854;2023-10-08T07:28:39;10.38;;;7.78;;
14599;SDS011;7386;45.586;12.854;2023-10-08T07:31:12;10.07;;;7.70;;
14599;SDS011;7386;45.586;12.854;2023-10-08T07:33:42;9.55;;;7.38;;
14599;SDS011;7386;45.586;12.854;2023-10-08T07:36:11;9.02;;;7.53;;
14599;SDS011;7386;45.586;12.854;2023-10-08T07:38:40;9.75;;;7.50;;
14599;SDS011;7386;45.586;12.854;2023-10-08T07:41:09;9.25;;;7.15;;
14599;SDS011;7386;45.586;12.854;2023-10-08T07:43:40;9.70;;;7.60;;
14599;SDS011;7386;45.586;12.854;2023-10-08T07:46:09;8.38;;;6.85;;
14599;SDS011;7386;45.586;12.854;2023-10-08T07:48:40;9.85;;;7.38;;
14599;SDS011;7386;45.586;12.854;2023-10-08T07:51:09;10.15;;;7.30;;
14599;SDS011;7386;45.586;12.854;2023-10-08T07:53:38;9.45;;;7.38;;
14599;SDS011;7386;45.586;12.854;2023-10-08T07:56:08;7.97;;;6.63;;
14599;SDS011;7386;45.586;12.854;2023-10-08T07:58:37;9.25;;;7.30;;
14599;SDS011;7386;45.586;12.854;2023-10-08T08:01:07;9.57;;;6.85;;
14599;SDS011;7386;45.586;12.854;2023-10-08T08:03:36;9.15;;;6.68;;
14599;SDS011;7386;45.586;12.854;2023-10-08T08:06:05;7.93;;;6.53;;
14599;SDS011;7386;45.586;12.854;2023-10-08T08:08:34;9.25;;;6.93;;
14599;SDS011;7386;45.586;12.854;2023-10-08T08:11:02;8.35;;;6.82;;
14599;SDS011;7386;45.586;12.854;2023-10-08T08:13:33;9.00;;;6.63;;
14599;SDS011;7386;45.586;12.854;2023-10-08T08:16:02;8.68;;;7.05;;
14599;SDS011;7386;45.586;12.854;2023-10-08T08:18:44;10.43;;;6.88;;
14599;SDS011;7386;45.586;12.854;2023-10-08T08:21:13;8.73;;;6.65;;
14599;SDS011;7386;45.586;12.854;2023-10-08T08:23:43;8.70;;;7.47;;
14599;SDS011;7386;45.586;12.854;2023-10-08T08:26:15;7.95;;;6.57;;
14599;SDS011;7386;45.586;12.854;2023-10-08T08:28:54;9.40;;;7.28;;
14599;SDS011;7386;45.586;12.854;2023-10-08T08:31:23;7.70;;;5.97;;
14599;SDS011;7386;45.586;12.854;2023-10-08T08:33:54;9.23;;;7.03;;
14599;SDS011;7386;45.586;12.854;2023-10-08T08:36:26;9.45;;;7.32;;
14599;SDS011;7386;45.586;12.854;2023-10-08T08:38:55;8.63;;;6.55;;
14599;SDS011;7386;45.586;12.854;2023-10-08T08:41:24;8.20;;;6.63;;
14599;SDS011;7386;45.586;12.854;2023-10-08T08:43:53;7.63;;;6.22;;
14599;SDS011;7386;45.586;12.854;2023-10-08T08:46:27;9.75;;;7.10;;
14599;SDS011;7386;45.586;12.854;2023-10-08T08:48:57;8.27;;;6.70;;
14599;SDS011;7386;45.586;12.854;2023-10-08T08:51:28;9.95;;;6.90;;
14599;SDS011;7386;45.586;12.854;2023-10-08T08:53:57;8.40;;;6.85;;
14599;SDS011;7386;45.586;12.854;2023-10-08T08:56:28;12.38;;;8.55;;
14599;SDS011;7386;45.586;12.854;2023-10-08T08:58:57;10.85;;;8.23;;
14599;SDS011;7386;45.586;12.854;2023-10-08T09:01:26;8.90;;;6.95;;
14599;SDS011;7386;45.586;12.854;2023-10-08T09:04:00;11.80;;;8.63;;
14599;SDS011;7386;45.586;12.854;2023-10-08T09:06:32;12.57;;;9.48;;
14599;SDS011;7386;45.586;12.854;2023-10-08T09:09:01;12.30;;;8.30;;
14599;SDS011;7386;45.586;12.854;2023-10-08T09:11:48;9.40;;;7.60;;
14599;SDS011;7386;45.586;12.854;2023-10-08T09:14:19;9.15;;;7.38;;
14599;SDS011;7386;45.586;12.854;2023-10-08T09:16:49;11.80;;;8.77;;
14599;SDS011;7386;45.586;12.854;2023-10-08T09:19:19;14.48;;;9.73;;
14599;SDS011;7386;45.586;12.854;2023-10-08T09:21:59;10.93;;;8.45;;
14599;SDS011;7386;45.586;12.854;2023-10-08T09:24:30;10.40;;;7.97;;
14599;SDS011;7386;45.586;12.854;2023-10-08T09:27:00;11.63;;;8.55;;
14599;SDS011;7386;45.586;12.854;2023-10-08T09:29:29;11.18;;;8.35;;
14599;SDS011;7386;45.586;12.854;2023-10-08T09:31:59;10.30;;;8.43;;
14599;SDS011;7386;45.586;12.854;2023-10-08T09:34:29;12.13;;;9.60;;
14599;SDS011;7386;45.586;12.854;2023-10-08T09:36:58;10.95;;;8.38;;
14599;SDS011;7386;45.586;12.854;2023-10-08T09:39:27;12.73;;;10.02;;
14599;SDS011;7386;45.586;12.854;2023-10-08T09:42:01;15.95;;;12.02;;
14599;SDS011;7386;45.586;12.854;2023-10-08T09:44:33;17.27;;;11.60;;
14599;SDS011;7386;45.586;12.854;2023-10-08T09:47:02;13.38;;;10.50;;
14599;SDS011;7386;45.586;12.854;2023-10-08T09:49:35;12.13;;;9.57;;
14599;SDS011;7386;45.586;12.854;2023-10-08T09:52:09;13.35;;;10.60;;
14599;SDS011;7386;45.586;12.854;2023-10-08T09:54:42;13.88;;;11.00;;
14599;SDS011;7386;45.586;12.854;2023-10-08T09:57:12;22.40;;;15.43;;
14599;SDS011;7386;45.586;12.854;2023-10-08T09:59:45;20.17;;;14.48;;
14599;SDS011;7386;45.586;12.854;2023-10-08T10:02:15;14.07;;;10.48;;
14599;SDS011;7386;45.586;12.854;2023-10-08T10:04:46;10.85;;;8.90;;
14599;SDS011;7386;45.586;12.854;2023-10-08T10:07:14;14.10;;;10.77;;
14599;SDS011;7386;45.586;12.854;2023-10-08T10:09:44;12.70;;;9.95;;
14599;SDS011;7386;45.586;12.854;2023-10-08T10:12:17;15.45;;;11.45;;
14599;SDS011;7386;45.586;12.854;2023-10-08T10:14:52;13.93;;;10.43;;
14599;SDS011;7386;45.586;12.854;2023-10-08T10:17:22;11.55;;;9.25;;
14599;SDS011;7386;45.586;12.854;2023-10-08T10:20:11;16.38;;;11.90;;
14599;SDS011;7386;45.586;12.854;2023-10-08T10:22:42;15.80;;;11.93;;
14599;SDS011;7386;45.586;12.854;2023-10-08T10:25:12;14.02;;;11.35;;
14599;SDS011;7386;45.586;12.854;2023-10-08T10:30:34;16.08;;;12.30;;
14599;SDS011;7386;45.586;12.854;2023-10-08T10:33:02;16.98;;;12.43;;
14599;SDS011;7386;45.586;12.854;2023-10-08T10:35:33;15.88;;;12.00;;
14599;SDS011;7386;45.586;12.854;2023-10-08T10:38:06;14.93;;;11.38;;
14599;SDS011;7386;45.586;12.854;2023-10-08T10:40:35;13.95;;;10.35;;
14599;SDS011;7386;45.586;12.854;2023-10-08T10:43:06;14.07;;;11.50;;
14599;SDS011;7386;45.586;12.854;2023-10-08T10:45:36;13.60;;;11.02;;
14599;SDS011;7386;45.586;12.854;2023-10-08T10:48:09;12.57;;;10.23;;
14599;SDS011;7386;45.586;12.854;2023-10-08T10:50:50;13.98;;;10.30;;
14599;SDS011;7386;45.586;12.854;2023-10-08T10:53:33;18.02;;;12.50;;
14599;SDS011;7386;45.586;12.854;2023-10-08T10:56:11;15.88;;;12.43;;
14599;SDS011;7386;45.586;12.854;2023-10-08T10:58:45;17.30;;;11.27;;
14599;SDS011;7386;45.586;12.854;2023-10-08T11:01:22;13.77;;;10.88;;
14599;SDS011;7386;45.586;12.854;2023-10-08T11:03:50;14.40;;;11.57;;
14599;SDS011;7386;45.586;12.854;2023-10-08T11:06:21;14.02;;;10.80;;
14599;SDS011;7386;45.586;12.854;2023-10-08T11:08:50;17.15;;;13.20;;
14599;SDS011;7386;45.586;12.854;2023-10-08T11:11:25;15.38;;;11.95;;
14599;SDS011;7386;45.586;12.854;2023-10-08T11:13:56;17.90;;;14.45;;
14599;SDS011;7386;45.586;12.854;2023-10-08T11:16:27;18.33;;;14.27;;
14599;SDS011;7386;45.586;12.854;2023-10-08T11:18:58;17.58;;;12.52;;
14599;SDS011;7386;45.586;12.854;2023-10-08T11:21:37;14.57;;;11.30;;
14599;SDS011;7386;45.586;12.854;2023-10-08T11:24:26;14.65;;;11.40;;
14599;SDS011;7386;45.586;12.854;2023-10-08T11:26:55;15.50;;;11.32;;
14599;SDS011;7386;45.586;12.854;2023-10-08T11:29:42;15.02;;;11.73;;
14599;SDS011;7386;45.586;12.854;2023-10-08T11:32:11;15.05;;;11.90;;
14599;SDS011;7386;45.586;12.854;2023-10-08T11:34:42;16.38;;;11.48;;
14599;SDS011;7386;45.586;12.854;2023-10-08T11:37:12;14.10;;;10.88;;
14599;SDS011;7386;45.586;12.854;2023-10-08T11:39:47;16.98;;;13.15;;
14599;SDS011;7386;45.586;12.854;2023-10-08T11:42:17;13.65;;;11.23;;
14599;SDS011;7386;45.586;12.854;2023-10-08T11:45:03;17.10;;;12.23;;
14599;SDS011;7386;45.586;12.854;2023-10-08T11:47:45;14.45;;;11.25;;
14599;SDS011;7386;45.586;12.854;2023-10-08T11:50:15;14.45;;;11.13;;
14599;SDS011;7386;45.586;12.854;2023-10-08T11:52:47;15.30;;;11.55;;
14599;SDS011;7386;45.586;12.854;2023-10-08T11:55:16;14.63;;;11.27;;
14599;SDS011;7386;45.586;12.854;2023-10-08T11:57:46;13.23;;;11.13;;
14599;SDS011;7386;45.586;12.854;2023-10-08T12:00:15;14.98;;;11.55;;
14599;SDS011;7386;45.586;12.854;2023-10-08T12:02:49;14.38;;;10.70;;
14599;SDS011;7386;45.586;12.854;2023-10-08T12:05:21;13.32;;;10.82;;
14599;SDS011;7386;45.586;12.854;2023-10-08T12:07:52;12.48;;;9.60;;
14599;SDS011;7386;45.586;12.854;2023-10-08T12:10:24;14.25;;;10.88;;
14599;SDS011;7386;45.586;12.854;2023-10-08T12:12:53;12.20;;;9.95;;
14599;SDS011;7386;45.586;12.854;2023-10-08T12:15:22;11.85;;;9.75;;
14599;SDS011;7386;45.586;12.854;2023-10-08T12:18:00;12.25;;;10.02;;
14599;SDS011;7386;45.586;12.854;2023-10-08T12:20:40;13.38;;;10.48;;
14599;SDS011;7386;45.586;12.854;2023-10-08T12:23:12;14.65;;;11.02;;
14599;SDS011;7386;45.586;12.854;2023-10-08T12:25:51;14.48;;;11.07;;
14599;SDS011;7386;45.586;12.854;2023-10-08T12:28:22;13.23;;;10.63;;
14599;SDS011;7386;45.586;12.854;2023-10-08T12:30:51;13.20;;;10.75;;
14599;SDS011;7386;45.586;12.854;2023-10-08T12:33:20;13.38;;;10.57;;
14599;SDS011;7386;45.586;12.854;2023-10-08T12:35:50;12.95;;;10.45;;
14599;SDS011;7386;45.586;12.854;2023-10-08T12:38:24;15.20;;;11.93;;
14599;SDS011;7386;45.586;12.854;2023-10-08T12:40:54;14.77;;;11.48;;
14599;SDS011;7386;45.586;12.854;2023-10-08T12:43:25;14.27;;;11.60;;
14599;SDS011;7386;45.586;12.854;2023-10-08T12:45:54;14.10;;;11.40;;
14599;SDS011;7386;45.586;12.854;2023-10-08T12:48:23;14.30;;;11.68;;
14599;SDS011;7386;45.586;12.854;2023-10-08T12:50:53;14.68;;;11.93;;
14599;SDS011;7386;45.586;12.854;2023-10-08T12:53:25;15.30;;;11.73;;
14599;SDS011;7386;45.586;12.854;2023-10-08T12:56:00;14.23;;;11.82;;
14599;SDS011;7386;45.586;12.854;2023-10-08T12:58:34;15.80;;;11.68;;
14599;SDS011;7386;45.586;12.854;2023-10-08T13:01:08;18.13;;;14.43;;
14599;SDS011;7386;45.586;12.854;2023-10-08T13:03:37;19.60;;;13.55;;
14599;SDS011;7386;45.586;12.854;2023-10-08T13:06:09;14.55;;;11.68;;
14599;SDS011;7386;45.586;12.854;2023-10-08T13:08:42;15.57;;;12.13;;
14599;SDS011;7386;45.586;12.854;2023-10-08T13:11:12;21.98;;;16.15;;
14599;SDS011;7386;45.586;12.854;2023-10-08T13:13:40;23.90;;;17.80;;
14599;SDS011;7386;45.586;12.854;2023-10-08T13:16:11;34.47;;;24.20;;
14599;SDS011;7386;45.586;12.854;2023-10-08T13:18:39;30.75;;;21.67;;
14599;SDS011;7386;45.586;12.854;2023-10-08T13:21:10;25.30;;;18.20;;
14599;SDS011;7386;45.586;12.854;2023-10-08T13:23:38;25.65;;;18.88;;
14599;SDS011;7386;45.586;12.854;2023-10-08T13:26:08;30.15;;;23.00;;
14599;SDS011;7386;45.586;12.854;2023-10-08T13:28:44;39.22;;;27.83;;
14599;SDS011;7386;45.586;12.854;2023-10-08T13:31:12;37.17;;;27.27;;
14599;SDS011;7386;45.586;12.854;2023-10-08T13:33:44;34.90;;;26.08;;
14599;SDS011;7386;45.586;12.854;2023-10-08T13:36:15;38.47;;;26.40;;
14599;SDS011;7386;45.586;12.854;2023-10-08T13:38:45;36.42;;;25.80;;
14599;SDS011;7386;45.586;12.854;2023-10-08T13:41:15;24.90;;;18.15;;
14599;SDS011;7386;45.586;12.854;2023-10-08T13:43:45;18.55;;;14.98;;
14599;SDS011;7386;45.586;12.854;2023-10-08T13:46:14;17.88;;;14.13;;
14599;SDS011;7386;45.586;12.854;2023-10-08T13:48:44;17.52;;;13.52;;
14599;SDS011;7386;45.586;12.854;2023-10-08T13:51:15;17.25;;;13.30;;
14599;SDS011;7386;45.586;12.854;2023-10-08T13:53:50;14.98;;;13.07;;
14599;SDS011;7386;45.586;12.854;2023-10-08T13:56:21;15.00;;;12.38;;
14599;SDS011;7386;45.586;12.854;2023-10-08T13:58:53;15.77;;;12.38;;
14599;SDS011;7386;45.586;12.854;2023-10-08T14:01:30;18.17;;;13.57;;
14599;SDS011;7386;45.586;12.854;2023-10-08T14:04:00;16.05;;;12.68;;
14599;SDS011;7386;45.586;12.854;2023-10-08T14:06:33;16.40;;;12.82;;
14599;SDS011;7386;45.586;12.854;2023-10-08T14:09:02;14.98;;;12.70;;
14599;SDS011;7386;45.586;12.854;2023-10-08T14:11:39;16.45;;;12.93;;
14599;SDS011;7386;45.586;12.854;2023-10-08T14:14:08;17.52;;;13.27;;
14599;SDS011;7386;45.586;12.854;2023-10-08T14:16:39;16.63;;;13.65;;
14599;SDS011;7386;45.586;12.854;2023-10-08T14:19:09;16.67;;;13.45;;
14599;SDS011;7386;45.586;12.854;2023-10-08T14:21:39;16.55;;;13.68;;
14599;SDS011;7386;45.586;12.854;2023-10-08T14:24:16;16.10;;;13.38;;
14599;SDS011;7386;45.586;12.854;2023-10-08T14:26:46;15.85;;;13.07;;
14599;SDS011;7386;45.586;12.854;2023-10-08T14:29:19;16.38;;;14.02;;
14599;SDS011;7386;45.586;12.854;2023-10-08T14:31:51;18.55;;;14.52;;
14599;SDS011;7386;45.586;12.854;2023-10-08T14:34:23;17.05;;;13.68;;
14599;SDS011;7386;45.586;12.854;2023-10-08T14:37:16;19.38;;;14.85;;
14599;SDS011;7386;45.586;12.854;2023-10-08T14:40:02;18.13;;;14.25;;
14599;SDS011;7386;45.586;12.854;2023-10-08T14:42:50;17.85;;;14.52;;
14599;SDS011;7386;45.586;12.854;2023-10-08T14:45:26;17.60;;;13.68;;
14599;SDS011;7386;45.586;12.854;2023-10-08T14:47:57;17.58;;;14.52;;
14599;SDS011;7386;45.586;12.854;2023-10-08T14:50:27;16.55;;;13.85;;
14599;SDS011;7386;45.586;12.854;2023-10-08T14:52:59;20.55;;;16.13;;
14599;SDS011;7386;45.586;12.854;2023-10-08T14:55:32;19.25;;;15.80;;
14599;SDS011;7386;45.586;12.854;2023-10-08T14:58:04;24.02;;;19.50;;
14599;SDS011;7386;45.586;12.854;2023-10-08T15:00:35;25.30;;;19.75;;
14599;SDS011;7386;45.586;12.854;2023-10-08T15:03:04;20.63;;;16.63;;